sensor_id;sensor_type;location;lat;lon;timestamp;P1;durP1;ratioP1;P2;durP2;ratioP2
11823;SDS011;5969;50.780;7.726;2023-08-01T00:00:17;1.38;;;1.10;;
11823;SDS011;5969;50.780;7.726;2023-08-01T00:02:44;1.85;;;1.15;;
11823;SDS011;5969;50.780;7.726;2023-08-01T00:05:11;1.50;;;1.25;;
11823;SDS011;5969;50.780;7.726;2023-08-01T00:07:42;1.95;;;1.27;;
11823;SDS011;5969;50.780;7.726;2023-08-01T00:10:10;2.95;;;1.17;;
11823;SDS011;5969;50.780;7.726;2023-08-01T00:12:37;1.50;;;1.20;;
11823;SDS011;5969;50.780;7.726;2023-08-01T00:15:04;3.35;;;1.10;;
11823;SDS011;5969;50.780;7.726;2023-08-01T00:17:37;2.63;;;1.20;;
11823;SDS011;5969;50.780;7.726;2023-08-01T00:20:06;1.30;;;1.02;;
11823;SDS011;5969;50.780;7.726;2023-08-01T00:22:34;2.47;;;1.10;;
11823;SDS011;5969;50.780;7.726;2023-08-01T00:25:02;1.85;;;0.95;;
11823;SDS011;5969;50.780;7.726;2023-08-01T00:27:30;1.67;;;1.20;;
11823;SDS011;5969;50.780;7.726;2023-08-01T00:29:57;1.30;;;1.20;;
11823;SDS011;5969;50.780;7.726;2023-08-01T00:32:24;2.05;;;1.08;;
11823;SDS011;5969;50.780;7.726;2023-08-01T00:34:51;1.30;;;1.15;;
11823;SDS011;5969;50.780;7.726;2023-08-01T00:37:18;1.23;;;1.13;;
11823;SDS011;5969;50.780;7.726;2023-08-01T00:39:45;1.73;;;1.00;;
11823;SDS011;5969;50.780;7.726;2023-08-01T00:42:16;1.13;;;1.05;;
11823;SDS011;5969;50.780;7.726;2023-08-01T00:44:43;1.30;;;1.20;;
11823;SDS011;5969;50.780;7.726;2023-08-01T00:47:15;2.65;;;1.10;;
11823;SDS011;5969;50.780;7.726;2023-08-01T00:49:42;1.88;;;1.02;;
11823;SDS011;5969;50.780;7.726;2023-08-01T00:52:09;1.55;;;1.30;;
11823;SDS011;5969;50.780;7.726;2023-08-01T00:54:37;1.95;;;1.20;;
11823;SDS011;5969;50.780;7.726;2023-08-01T00:57:04;2.30;;;1.10;;
11823;SDS011;5969;50.780;7.726;2023-08-01T00:59:33;2.38;;;1.33;;
11823;SDS011;5969;50.780;7.726;2023-08-01T01:02:00;1.20;;;1.10;;
11823;SDS011;5969;50.780;7.726;2023-08-01T01:04:28;1.45;;;1.08;;
11823;SDS011;5969;50.780;7.726;2023-08-01T01:06:57;1.42;;;1.15;;
11823;SDS011;5969;50.780;7.726;2023-08-01T01:09:28;1.60;;;0.93;;
11823;SDS011;5969;50.780;7.726;2023-08-01T01:11:57;1.10;;;1.00;;
11823;SDS011;5969;50.780;7.726;2023-08-01T01:14:23;1.17;;;1.00;;
11823;SDS011;5969;50.780;7.726;2023-08-01T01:16:52;5.53;;;1.15;;
11823;SDS011;5969;50.780;7.726;2023-08-01T01:19:19;2.08;;;0.80;;
11823;SDS011;5969;50.780;7.726;2023-08-01T01:21:48;2.45;;;1.00;;
11823;SDS011;5969;50.780;7.726;2023-08-01T01:24:16;1.52;;;1.00;;
11823;SDS011;5969;50.780;7.726;2023-08-01T01:26:46;1.88;;;1.10;;
11823;SDS011;5969;50.780;7.726;2023-08-01T01:29:15;2.25;;;1.15;;
11823;SDS011;5969;50.780;7.726;2023-08-01T01:31:43;1.20;;;1.10;;
11823;SDS011;5969;50.780;7.726;2023-08-01T01:34:11;2.13;;;1.00;;
11823;SDS011;5969;50.780;7.726;2023-08-01T01:36:39;1.92;;;1.02;;
11823;SDS011;5969;50.780;7.726;2023-08-01T01:39:10;2.45;;;1.20;;
11823;SDS011;5969;50.780;7.726;2023-08-01T01:41:37;1.10;;;1.00;;
11823;SDS011;5969;50.780;7.726;2023-08-01T01:44:04;1.38;;;1.27;;
11823;SDS011;5969;50.780;7.726;2023-08-01T01:46:31;2.15;;;1.00;;
11823;SDS011;5969;50.780;7.726;2023-08-01T01:48:58;0.98;;;0.90;;
11823;SDS011;5969;50.780;7.726;2023-08-01T01:51:26;1.00;;;0.90;;
11823;SDS011;5969;50.780;7.726;2023-08-01T01:53:55;1.05;;;0.80;;
11823;SDS011;5969;50.780;7.726;2023-08-01T01:56:23;1.58;;;0.95;;
11823;SDS011;5969;50.780;7.726;2023-08-01T01:58:52;2.78;;;1.00;;
11823;SDS011;5969;50.780;7.726;2023-08-01T02:01:19;1.38;;;1.17;;
11823;SDS011;5969;50.780;7.726;2023-08-01T02:03:46;1.15;;;1.00;;
11823;SDS011;5969;50.780;7.726;2023-08-01T02:06:13;2.72;;;0.98;;
11823;SDS011;5969;50.780;7.726;2023-08-01T02:08:40;1.63;;;0.80;;
11823;SDS011;5969;50.780;7.726;2023-08-01T02:11:07;1.58;;;0.90;;
11823;SDS011;5969;50.780;7.726;2023-08-01T02:13:35;1.20;;;1.08;;
11823;SDS011;5969;50.780;7.726;2023-08-01T02:19:15;1.15;;;0.90;;
11823;SDS011;5969;50.780;7.726;2023-08-01T02:21:43;1.85;;;1.20;;
11823;SDS011;5969;50.780;7.726;2023-08-01T02:24:10;1.23;;;1.02;;
11823;SDS011;5969;50.780;7.726;2023-08-01T02:26:37;1.33;;;0.90;;
11823;SDS011;5969;50.780;7.726;2023-08-01T02:29:06;1.23;;;0.98;;
11823;SDS011;5969;50.780;7.726;2023-08-01T02:31:33;5.22;;;1.10;;
11823;SDS011;5969;50.780;7.726;2023-08-01T02:34:00;1.98;;;1.00;;
11823;SDS011;5969;50.780;7.726;2023-08-01T02:36:27;1.65;;;1.20;;
11823;SDS011;5969;50.780;7.726;2023-08-01T02:38:55;1.00;;;0.90;;
11823;SDS011;5969;50.780;7.726;2023-08-01T02:41:22;1.67;;;1.00;;
11823;SDS011;5969;50.780;7.726;2023-08-01T02:43:50;2.25;;;0.85;;
11823;SDS011;5969;50.780;7.726;2023-08-01T02:46:19;1.08;;;0.98;;
11823;SDS011;5969;50.780;7.726;2023-08-01T02:48:46;2.45;;;1.10;;
11823;SDS011;5969;50.780;7.726;2023-08-01T02:51:14;1.25;;;1.00;;
11823;SDS011;5969;50.780;7.726;2023-08-01T02:53:42;2.13;;;0.90;;
11823;SDS011;5969;50.780;7.726;2023-08-01T02:56:09;3.28;;;1.05;;
11823;SDS011;5969;50.780;7.726;2023-08-01T02:58:36;1.80;;;1.00;;
11823;SDS011;5969;50.780;7.726;2023-08-01T03:01:05;0.90;;;0.80;;
11823;SDS011;5969;50.780;7.726;2023-08-01T03:03:35;1.05;;;1.00;;
11823;SDS011;5969;50.780;7.726;2023-08-01T03:06:03;2.78;;;1.10;;
11823;SDS011;5969;50.780;7.726;2023-08-01T03:08:31;0.90;;;0.90;;
11823;SDS011;5969;50.780;7.726;2023-08-01T03:10:59;1.00;;;1.00;;
11823;SDS011;5969;50.780;7.726;2023-08-01T03:13:26;0.98;;;0.90;;
11823;SDS011;5969;50.780;7.726;2023-08-01T03:15:52;1.10;;;1.00;;
11823;SDS011;5969;50.780;7.726;2023-08-01T03:18:19;1.48;;;1.05;;
11823;SDS011;5969;50.780;7.726;2023-08-01T03:20:47;0.80;;;0.80;;
11823;SDS011;5969;50.780;7.726;2023-08-01T03:23:14;3.20;;;0.80;;
11823;SDS011;5969;50.780;7.726;2023-08-01T03:25:41;1.15;;;0.80;;
11823;SDS011;5969;50.780;7.726;2023-08-01T03:28:08;0.82;;;0.82;;
11823;SDS011;5969;50.780;7.726;2023-08-01T03:30:35;0.70;;;0.70;;
11823;SDS011;5969;50.780;7.726;2023-08-01T03:33:02;0.82;;;0.82;;
11823;SDS011;5969;50.780;7.726;2023-08-01T03:35:29;0.65;;;0.65;;
11823;SDS011;5969;50.780;7.726;2023-08-01T03:37:57;1.08;;;0.80;;
11823;SDS011;5969;50.780;7.726;2023-08-01T03:40:24;1.30;;;1.20;;
11823;SDS011;5969;50.780;7.726;2023-08-01T03:42:51;1.15;;;1.10;;
11823;SDS011;5969;50.780;7.726;2023-08-01T03:45:18;1.50;;;1.40;;
11823;SDS011;5969;50.780;7.726;2023-08-01T03:47:45;1.70;;;1.60;;
11823;SDS011;5969;50.780;7.726;2023-08-01T03:50:12;2.95;;;1.52;;
11823;SDS011;5969;50.780;7.726;2023-08-01T03:52:39;2.08;;;1.88;;
11823;SDS011;5969;50.780;7.726;2023-08-01T03:55:08;3.15;;;1.80;;
11823;SDS011;5969;50.780;7.726;2023-08-01T03:57:34;3.42;;;1.98;;
11823;SDS011;5969;50.780;7.726;2023-08-01T04:00:03;2.20;;;2.00;;
11823;SDS011;5969;50.780;7.726;2023-08-01T04:02:31;2.50;;;2.30;;
11823;SDS011;5969;50.780;7.726;2023-08-01T04:04:58;3.35;;;2.50;;
11823;SDS011;5969;50.780;7.726;2023-08-01T04:07:25;3.33;;;3.13;;
11823;SDS011;5969;50.780;7.726;2023-08-01T04:09:51;3.13;;;2.92;;
11823;SDS011;5969;50.780;7.726;2023-08-01T04:12:20;6.10;;;3.83;;
11823;SDS011;5969;50.780;7.726;2023-08-01T04:14:47;3.33;;;3.03;;
11823;SDS011;5969;50.780;7.726;2023-08-01T04:17:14;2.85;;;2.55;;
11823;SDS011;5969;50.780;7.726;2023-08-01T04:19:41;2.83;;;2.63;;
11823;SDS011;5969;50.780;7.726;2023-08-01T04:22:07;3.45;;;2.38;;
11823;SDS011;5969;50.780;7.726;2023-08-01T04:24:35;3.03;;;2.50;;
11823;SDS011;5969;50.780;7.726;2023-08-01T04:27:02;3.47;;;2.67;;
11823;SDS011;5969;50.780;7.726;2023-08-01T04:29:30;3.80;;;2.33;;
11823;SDS011;5969;50.780;7.726;2023-08-01T04:31:57;2.95;;;2.75;;
11823;SDS011;5969;50.780;7.726;2023-08-01T04:34:24;3.03;;;2.70;;
11823;SDS011;5969;50.780;7.726;2023-08-01T04:36:51;5.70;;;3.40;;
11823;SDS011;5969;50.780;7.726;2023-08-01T04:39:17;2.90;;;2.47;;
11823;SDS011;5969;50.780;7.726;2023-08-01T04:41:44;3.15;;;2.85;;
11823;SDS011;5969;50.780;7.726;2023-08-01T04:44:11;4.25;;;2.55;;
11823;SDS011;5969;50.780;7.726;2023-08-01T04:46:39;3.42;;;2.53;;
11823;SDS011;5969;50.780;7.726;2023-08-01T04:49:06;3.17;;;2.45;;
11823;SDS011;5969;50.780;7.726;2023-08-01T04:51:33;2.83;;;2.53;;
11823;SDS011;5969;50.780;7.726;2023-08-01T04:53:59;4.13;;;2.70;;
11823;SDS011;5969;50.780;7.726;2023-08-01T04:56:26;4.43;;;3.95;;
11823;SDS011;5969;50.780;7.726;2023-08-01T04:58:53;4.55;;;4.15;;
11823;SDS011;5969;50.780;7.726;2023-08-01T05:01:19;4.63;;;4.22;;
11823;SDS011;5969;50.780;7.726;2023-08-01T05:03:48;5.10;;;4.60;;
11823;SDS011;5969;50.780;7.726;2023-08-01T05:06:14;5.57;;;5.10;;
11823;SDS011;5969;50.780;7.726;2023-08-01T05:08:41;6.00;;;5.60;;
11823;SDS011;5969;50.780;7.726;2023-08-01T05:11:08;6.82;;;6.32;;
11823;SDS011;5969;50.780;7.726;2023-08-01T05:13:35;7.85;;;7.15;;
11823;SDS011;5969;50.780;7.726;2023-08-01T05:16:02;8.05;;;7.25;;
11823;SDS011;5969;50.780;7.726;2023-08-01T05:18:29;6.82;;;6.07;;
11823;SDS011;5969;50.780;7.726;2023-08-01T05:20:57;5.95;;;5.38;;
11823;SDS011;5969;50.780;7.726;2023-08-01T05:23:24;6.90;;;6.40;;
11823;SDS011;5969;50.780;7.726;2023-08-01T05:25:51;6.95;;;6.35;;
11823;SDS011;5969;50.780;7.726;2023-08-01T05:28:18;7.28;;;6.60;;
11823;SDS011;5969;50.780;7.726;2023-08-01T05:30:45;7.45;;;6.75;;
11823;SDS011;5969;50.780;7.726;2023-08-01T05:33:11;7.13;;;6.53;;
11823;SDS011;5969;50.780;7.726;2023-08-01T05:35:38;6.60;;;5.93;;
11823;SDS011;5969;50.780;7.726;2023-08-01T05:38:07;8.10;;;6.70;;
11823;SDS011;5969;50.780;7.726;2023-08-01T05:40:33;7.07;;;6.38;;
11823;SDS011;5969;50.780;7.726;2023-08-01T05:43:00;9.05;;;6.03;;
11823;SDS011;5969;50.780;7.726;2023-08-01T05:45:29;6.65;;;5.90;;
11823;SDS011;5969;50.780;7.726;2023-08-01T05:47:56;7.93;;;6.32;;
11823;SDS011;5969;50.780;7.726;2023-08-01T05:50:23;9.10;;;6.25;;
11823;SDS011;5969;50.780;7.726;2023-08-01T05:52:49;7.72;;;5.88;;
11823;SDS011;5969;50.780;7.726;2023-08-01T05:55:18;7.78;;;4.93;;
11823;SDS011;5969;50.780;7.726;2023-08-01T05:57:45;8.05;;;4.65;;
11823;SDS011;5969;50.780;7.726;2023-08-01T06:00:12;9.77;;;4.68;;
11823;SDS011;5969;50.780;7.726;2023-08-01T06:02:40;7.20;;;4.50;;
11823;SDS011;5969;50.780;7.726;2023-08-01T06:05:07;4.63;;;3.35;;
11823;SDS011;5969;50.780;7.726;2023-08-01T06:07:34;5.03;;;3.60;;
11823;SDS011;5969;50.780;7.726;2023-08-01T06:10:00;5.25;;;3.80;;
11823;SDS011;5969;50.780;7.726;2023-08-01T06:12:29;4.30;;;3.38;;
11823;SDS011;5969;50.780;7.726;2023-08-01T06:14:56;7.50;;;3.88;;
11823;SDS011;5969;50.780;7.726;2023-08-01T06:17:23;4.07;;;3.50;;
11823;SDS011;5969;50.780;7.726;2023-08-01T06:19:50;6.23;;;3.90;;
11823;SDS011;5969;50.780;7.726;2023-08-01T06:22:19;4.25;;;3.72;;
11823;SDS011;5969;50.780;7.726;2023-08-01T06:24:46;5.95;;;4.05;;
11823;SDS011;5969;50.780;7.726;2023-08-01T06:27:13;6.93;;;4.25;;
11823;SDS011;5969;50.780;7.726;2023-08-01T06:29:41;6.55;;;4.38;;
11823;SDS011;5969;50.780;7.726;2023-08-01T06:32:08;6.55;;;4.47;;
11823;SDS011;5969;50.780;7.726;2023-08-01T06:34:35;5.65;;;4.55;;
11823;SDS011;5969;50.780;7.726;2023-08-01T06:37:02;6.13;;;5.13;;
11823;SDS011;5969;50.780;7.726;2023-08-01T06:39:30;6.10;;;4.90;;
11823;SDS011;5969;50.780;7.726;2023-08-01T06:41:56;9.70;;;5.40;;
11823;SDS011;5969;50.780;7.726;2023-08-01T06:44:23;6.68;;;4.70;;
11823;SDS011;5969;50.780;7.726;2023-08-01T06:46:51;10.23;;;4.60;;
11823;SDS011;5969;50.780;7.726;2023-08-01T06:49:18;6.53;;;4.43;;
11823;SDS011;5969;50.780;7.726;2023-08-01T06:51:45;6.10;;;4.30;;
11823;SDS011;5969;50.780;7.726;2023-08-01T06:54:12;5.85;;;4.57;;
11823;SDS011;5969;50.780;7.726;2023-08-01T06:56:39;7.22;;;4.22;;
11823;SDS011;5969;50.780;7.726;2023-08-01T06:59:07;6.30;;;3.95;;
11823;SDS011;5969;50.780;7.726;2023-08-01T07:01:34;3.83;;;3.35;;
11823;SDS011;5969;50.780;7.726;2023-08-01T07:04:06;5.65;;;3.80;;
11823;SDS011;5969;50.780;7.726;2023-08-01T07:06:33;4.10;;;3.70;;
11823;SDS011;5969;50.780;7.726;2023-08-01T07:09:00;5.57;;;3.75;;
11823;SDS011;5969;50.780;7.726;2023-08-01T07:11:27;5.40;;;3.80;;
11823;SDS011;5969;50.780;7.726;2023-08-01T07:13:54;7.53;;;4.05;;
11823;SDS011;5969;50.780;7.726;2023-08-01T07:16:22;5.78;;;3.90;;
11823;SDS011;5969;50.780;7.726;2023-08-01T07:18:49;7.15;;;4.10;;
11823;SDS011;5969;50.780;7.726;2023-08-01T07:21:17;7.18;;;3.63;;
11823;SDS011;5969;50.780;7.726;2023-08-01T07:23:44;7.57;;;4.00;;
11823;SDS011;5969;50.780;7.726;2023-08-01T07:26:22;8.38;;;4.18;;
11823;SDS011;5969;50.780;7.726;2023-08-01T07:28:48;8.38;;;3.75;;
11823;SDS011;5969;50.780;7.726;2023-08-01T07:31:15;6.88;;;4.05;;
11823;SDS011;5969;50.780;7.726;2023-08-01T07:33:42;7.50;;;3.67;;
11823;SDS011;5969;50.780;7.726;2023-08-01T07:36:09;4.55;;;3.65;;
11823;SDS011;5969;50.780;7.726;2023-08-01T07:38:37;7.40;;;3.70;;
11823;SDS011;5969;50.780;7.726;2023-08-01T07:41:04;6.18;;;3.65;;
11823;SDS011;5969;50.780;7.726;2023-08-01T07:43:32;5.05;;;3.50;;
11823;SDS011;5969;50.780;7.726;2023-08-01T07:45:59;7.10;;;4.07;;
11823;SDS011;5969;50.780;7.726;2023-08-01T07:48:26;7.03;;;4.22;;
11823;SDS011;5969;50.780;7.726;2023-08-01T07:50:53;9.07;;;3.60;;
11823;SDS011;5969;50.780;7.726;2023-08-01T07:53:19;7.00;;;4.05;;
11823;SDS011;5969;50.780;7.726;2023-08-01T07:55:48;5.63;;;3.72;;
11823;SDS011;5969;50.780;7.726;2023-08-01T07:58:16;6.78;;;4.13;;
11823;SDS011;5969;50.780;7.726;2023-08-01T08:00:43;6.45;;;3.80;;
11823;SDS011;5969;50.780;7.726;2023-08-01T08:03:10;4.07;;;3.60;;
11823;SDS011;5969;50.780;7.726;2023-08-01T08:05:37;6.40;;;3.67;;
11823;SDS011;5969;50.780;7.726;2023-08-01T08:08:04;6.55;;;3.60;;
11823;SDS011;5969;50.780;7.726;2023-08-01T08:10:32;6.00;;;3.53;;
11823;SDS011;5969;50.780;7.726;2023-08-01T08:13:00;4.97;;;3.78;;
11823;SDS011;5969;50.780;7.726;2023-08-01T08:15:27;5.55;;;3.45;;
11823;SDS011;5969;50.780;7.726;2023-08-01T08:17:58;5.38;;;3.58;;
11823;SDS011;5969;50.780;7.726;2023-08-01T08:20:26;7.63;;;3.58;;
11823;SDS011;5969;50.780;7.726;2023-08-01T08:22:53;5.40;;;4.30;;
11823;SDS011;5969;50.780;7.726;2023-08-01T08:25:20;6.40;;;3.65;;
11823;SDS011;5969;50.780;7.726;2023-08-01T08:27:48;6.40;;;3.55;;
11823;SDS011;5969;50.780;7.726;2023-08-01T08:30:16;8.05;;;3.70;;
11823;SDS011;5969;50.780;7.726;2023-08-01T08:32:43;5.35;;;3.92;;
11823;SDS011;5969;50.780;7.726;2023-08-01T08:35:10;4.40;;;3.63;;
11823;SDS011;5969;50.780;7.726;2023-08-01T08:37:37;6.03;;;4.13;;
11823;SDS011;5969;50.780;7.726;2023-08-01T08:40:04;6.72;;;4.03;;
11823;SDS011;5969;50.780;7.726;2023-08-01T08:42:32;5.78;;;4.30;;
11823;SDS011;5969;50.780;7.726;2023-08-01T08:45:00;7.40;;;4.38;;
11823;SDS011;5969;50.780;7.726;2023-08-01T08:47:29;7.10;;;4.38;;
11823;SDS011;5969;50.780;7.726;2023-08-01T08:49:57;5.47;;;4.13;;
11823;SDS011;5969;50.780;7.726;2023-08-01T08:52:25;10.32;;;3.88;;
11823;SDS011;5969;50.780;7.726;2023-08-01T08:54:52;8.23;;;4.28;;
11823;SDS011;5969;50.780;7.726;2023-08-01T08:57:19;5.68;;;3.92;;
11823;SDS011;5969;50.780;7.726;2023-08-01T08:59:47;6.05;;;4.45;;
11823;SDS011;5969;50.780;7.726;2023-08-01T09:02:15;6.18;;;4.43;;
11823;SDS011;5969;50.780;7.726;2023-08-01T09:04:44;6.90;;;4.70;;
11823;SDS011;5969;50.780;7.726;2023-08-01T09:07:10;6.80;;;4.47;;
11823;SDS011;5969;50.780;7.726;2023-08-01T09:09:41;8.15;;;4.95;;
11823;SDS011;5969;50.780;7.726;2023-08-01T09:12:08;6.78;;;4.22;;
11823;SDS011;5969;50.780;7.726;2023-08-01T09:14:36;5.55;;;4.50;;
11823;SDS011;5969;50.780;7.726;2023-08-01T09:17:06;7.00;;;4.90;;
11823;SDS011;5969;50.780;7.726;2023-08-01T09:19:33;7.18;;;4.85;;
11823;SDS011;5969;50.780;7.726;2023-08-01T09:22:02;6.60;;;4.78;;
11823;SDS011;5969;50.780;7.726;2023-08-01T09:24:37;7.85;;;4.78;;
11823;SDS011;5969;50.780;7.726;2023-08-01T09:27:04;7.20;;;4.95;;
11823;SDS011;5969;50.780;7.726;2023-08-01T09:29:33;5.90;;;3.85;;
11823;SDS011;5969;50.780;7.726;2023-08-01T09:32:00;7.53;;;4.40;;
11823;SDS011;5969;50.780;7.726;2023-08-01T09:34:38;8.52;;;4.38;;
11823;SDS011;5969;50.780;7.726;2023-08-01T09:37:06;6.55;;;4.30;;
11823;SDS011;5969;50.780;7.726;2023-08-01T09:39:33;7.00;;;4.20;;
11823;SDS011;5969;50.780;7.726;2023-08-01T09:42:00;7.53;;;4.05;;
11823;SDS011;5969;50.780;7.726;2023-08-01T09:44:29;6.22;;;4.50;;
11823;SDS011;5969;50.780;7.726;2023-08-01T09:46:56;5.28;;;3.90;;
11823;SDS011;5969;50.780;7.726;2023-08-01T09:49:24;6.35;;;3.65;;
11823;SDS011;5969;50.780;7.726;2023-08-01T09:51:51;5.15;;;3.78;;
11823;SDS011;5969;50.780;7.726;2023-08-01T09:54:20;5.47;;;3.65;;
11823;SDS011;5969;50.780;7.726;2023-08-01T09:56:47;6.45;;;3.70;;
11823;SDS011;5969;50.780;7.726;2023-08-01T09:59:16;7.25;;;3.47;;
11823;SDS011;5969;50.780;7.726;2023-08-01T10:01:46;5.05;;;2.90;;
11823;SDS011;5969;50.780;7.726;2023-08-01T10:04:15;10.07;;;2.90;;
11823;SDS011;5969;50.780;7.726;2023-08-01T10:06:43;4.45;;;2.60;;
11823;SDS011;5969;50.780;7.726;2023-08-01T10:09:15;4.20;;;2.95;;
11823;SDS011;5969;50.780;7.726;2023-08-01T10:11:45;6.43;;;3.08;;
11823;SDS011;5969;50.780;7.726;2023-08-01T10:14:14;3.78;;;2.65;;
11823;SDS011;5969;50.780;7.726;2023-08-01T10:16:43;5.13;;;2.80;;
11823;SDS011;5969;50.780;7.726;2023-08-01T10:19:12;3.92;;;2.75;;
11823;SDS011;5969;50.780;7.726;2023-08-01T10:21:39;3.42;;;2.50;;
11823;SDS011;5969;50.780;7.726;2023-08-01T10:24:08;4.70;;;2.50;;
11823;SDS011;5969;50.780;7.726;2023-08-01T10:26:35;4.15;;;2.65;;
11823;SDS011;5969;50.780;7.726;2023-08-01T10:29:04;4.50;;;2.53;;
11823;SDS011;5969;50.780;7.726;2023-08-01T10:31:30;3.20;;;2.60;;
11823;SDS011;5969;50.780;7.726;2023-08-01T10:34:04;4.68;;;2.90;;
11823;SDS011;5969;50.780;7.726;2023-08-01T10:36:32;6.20;;;2.92;;
11823;SDS011;5969;50.780;7.726;2023-08-01T10:39:00;4.97;;;2.70;;
11823;SDS011;5969;50.780;7.726;2023-08-01T10:41:28;5.18;;;2.72;;
11823;SDS011;5969;50.780;7.726;2023-08-01T10:44:07;4.00;;;2.50;;
11823;SDS011;5969;50.780;7.726;2023-08-01T10:46:45;5.20;;;2.90;;
11823;SDS011;5969;50.780;7.726;2023-08-01T10:49:12;5.35;;;2.42;;
11823;SDS011;5969;50.780;7.726;2023-08-01T10:51:40;5.13;;;2.20;;
11823;SDS011;5969;50.780;7.726;2023-08-01T10:54:07;5.30;;;2.50;;
11823;SDS011;5969;50.780;7.726;2023-08-01T10:56:44;3.92;;;2.20;;
11823;SDS011;5969;50.780;7.726;2023-08-01T10:59:13;4.93;;;2.28;;
11823;SDS011;5969;50.780;7.726;2023-08-01T11:01:44;3.70;;;2.20;;
11823;SDS011;5969;50.780;7.726;2023-08-01T11:04:15;3.05;;;1.98;;
11823;SDS011;5969;50.780;7.726;2023-08-01T11:06:43;4.18;;;2.13;;
11823;SDS011;5969;50.780;7.726;2023-08-01T11:09:15;4.28;;;2.03;;
11823;SDS011;5969;50.780;7.726;2023-08-01T11:11:43;4.43;;;2.45;;
11823;SDS011;5969;50.780;7.726;2023-08-01T11:14:11;4.45;;;2.17;;
11823;SDS011;5969;50.780;7.726;2023-08-01T11:16:40;3.63;;;2.08;;
11823;SDS011;5969;50.780;7.726;2023-08-01T11:19:17;5.07;;;2.20;;
11823;SDS011;5969;50.780;7.726;2023-08-01T11:21:45;3.05;;;1.70;;
11823;SDS011;5969;50.780;7.726;2023-08-01T11:24:12;4.45;;;1.77;;
11823;SDS011;5969;50.780;7.726;2023-08-01T11:26:42;4.32;;;2.00;;
11823;SDS011;5969;50.780;7.726;2023-08-01T11:29:10;3.35;;;1.90;;
11823;SDS011;5969;50.780;7.726;2023-08-01T11:31:37;3.78;;;2.00;;
11823;SDS011;5969;50.780;7.726;2023-08-01T11:34:07;2.97;;;2.00;;
11823;SDS011;5969;50.780;7.726;2023-08-01T11:36:35;6.75;;;2.28;;
11823;SDS011;5969;50.780;7.726;2023-08-01T11:39:03;4.97;;;2.10;;
11823;SDS011;5969;50.780;7.726;2023-08-01T11:41:30;4.22;;;2.00;;
11823;SDS011;5969;50.780;7.726;2023-08-01T11:44:01;3.15;;;2.10;;
11823;SDS011;5969;50.780;7.726;2023-08-01T11:46:30;3.75;;;2.33;;
11823;SDS011;5969;50.780;7.726;2023-08-01T11:48:58;4.07;;;2.40;;
11823;SDS011;5969;50.780;7.726;2023-08-01T11:51:27;4.32;;;2.40;;
11823;SDS011;5969;50.780;7.726;2023-08-01T11:53:58;3.55;;;2.10;;
11823;SDS011;5969;50.780;7.726;2023-08-01T11:56:25;3.13;;;2.05;;
11823;SDS011;5969;50.780;7.726;2023-08-01T11:58:52;3.13;;;2.30;;
11823;SDS011;5969;50.780;7.726;2023-08-01T12:01:19;6.22;;;2.78;;
11823;SDS011;5969;50.780;7.726;2023-08-01T12:03:46;3.72;;;2.10;;
11823;SDS011;5969;50.780;7.726;2023-08-01T12:06:15;5.43;;;2.35;;
11823;SDS011;5969;50.780;7.726;2023-08-01T12:08:44;3.00;;;1.90;;
11823;SDS011;5969;50.780;7.726;2023-08-01T12:11:19;3.55;;;2.22;;
11823;SDS011;5969;50.780;7.726;2023-08-01T12:13:47;2.38;;;1.52;;
11823;SDS011;5969;50.780;7.726;2023-08-01T12:16:14;4.32;;;1.85;;
11823;SDS011;5969;50.780;7.726;2023-08-01T12:18:45;3.67;;;1.80;;
11823;SDS011;5969;50.780;7.726;2023-08-01T12:21:12;3.58;;;1.70;;
11823;SDS011;5969;50.780;7.726;2023-08-01T12:23:40;2.88;;;1.70;;
11823;SDS011;5969;50.780;7.726;2023-08-01T12:26:08;5.25;;;2.20;;
11823;SDS011;5969;50.780;7.726;2023-08-01T12:28:35;4.13;;;1.85;;
11823;SDS011;5969;50.780;7.726;2023-08-01T12:31:02;4.13;;;1.90;;
11823;SDS011;5969;50.780;7.726;2023-08-01T12:33:29;2.95;;;1.98;;
11823;SDS011;5969;50.780;7.726;2023-08-01T12:35:56;2.72;;;2.10;;
11823;SDS011;5969;50.780;7.726;2023-08-01T12:38:23;4.32;;;1.92;;
11823;SDS011;5969;50.780;7.726;2023-08-01T12:40:49;3.13;;;1.88;;
11823;SDS011;5969;50.780;7.726;2023-08-01T12:43:18;5.32;;;2.00;;
11823;SDS011;5969;50.780;7.726;2023-08-01T12:45:45;3.42;;;1.80;;
11823;SDS011;5969;50.780;7.726;2023-08-01T12:48:12;4.38;;;1.92;;
11823;SDS011;5969;50.780;7.726;2023-08-01T12:50:42;3.08;;;1.98;;
11823;SDS011;5969;50.780;7.726;2023-08-01T12:53:10;4.07;;;1.90;;
11823;SDS011;5969;50.780;7.726;2023-08-01T12:55:37;3.58;;;2.10;;
11823;SDS011;5969;50.780;7.726;2023-08-01T12:58:03;5.10;;;2.13;;
11823;SDS011;5969;50.780;7.726;2023-08-01T13:00:32;3.22;;;2.05;;
11823;SDS011;5969;50.780;7.726;2023-08-01T13:02:58;5.22;;;2.00;;
11823;SDS011;5969;50.780;7.726;2023-08-01T13:05:25;3.53;;;1.80;;
11823;SDS011;5969;50.780;7.726;2023-08-01T13:07:52;2.85;;;1.73;;
11823;SDS011;5969;50.780;7.726;2023-08-01T13:10:19;4.15;;;2.15;;
11823;SDS011;5969;50.780;7.726;2023-08-01T13:12:46;4.75;;;2.00;;
11823;SDS011;5969;50.780;7.726;2023-08-01T13:15:12;3.85;;;1.75;;
11823;SDS011;5969;50.780;7.726;2023-08-01T13:17:41;3.05;;;1.75;;
11823;SDS011;5969;50.780;7.726;2023-08-01T13:20:08;4.95;;;1.75;;
11823;SDS011;5969;50.780;7.726;2023-08-01T13:22:35;2.85;;;1.70;;
11823;SDS011;5969;50.780;7.726;2023-08-01T13:25:02;4.75;;;1.88;;
11823;SDS011;5969;50.780;7.726;2023-08-01T13:27:29;5.20;;;1.85;;
11823;SDS011;5969;50.780;7.726;2023-08-01T13:29:56;4.32;;;2.08;;
11823;SDS011;5969;50.780;7.726;2023-08-01T13:32:23;3.50;;;2.08;;
11823;SDS011;5969;50.780;7.726;2023-08-01T13:34:51;4.88;;;2.25;;
11823;SDS011;5969;50.780;7.726;2023-08-01T13:37:18;3.90;;;2.22;;
11823;SDS011;5969;50.780;7.726;2023-08-01T13:39:45;4.57;;;2.30;;
11823;SDS011;5969;50.780;7.726;2023-08-01T13:42:13;2.47;;;2.00;;
11823;SDS011;5969;50.780;7.726;2023-08-01T13:44:40;3.03;;;2.03;;
11823;SDS011;5969;50.780;7.726;2023-08-01T13:47:07;3.63;;;1.90;;
11823;SDS011;5969;50.780;7.726;2023-08-01T13:49:34;3.38;;;1.77;;
11823;SDS011;5969;50.780;7.726;2023-08-01T13:52:04;3.47;;;1.90;;
11823;SDS011;5969;50.780;7.726;2023-08-01T13:54:32;2.58;;;1.77;;
11823;SDS011;5969;50.780;7.726;2023-08-01T13:56:59;2.38;;;1.92;;
11823;SDS011;5969;50.780;7.726;2023-08-01T13:59:26;3.80;;;1.70;;
11823;SDS011;5969;50.780;7.726;2023-08-01T14:01:53;2.53;;;1.77;;
11823;SDS011;5969;50.780;7.726;2023-08-01T14:04:20;2.65;;;2.03;;
11823;SDS011;5969;50.780;7.726;2023-08-01T14:06:47;3.30;;;2.28;;
11823;SDS011;5969;50.780;7.726;2023-08-01T14:09:15;3.53;;;2.05;;
11823;SDS011;5969;50.780;7.726;2023-08-01T14:11:42;2.55;;;1.90;;
11823;SDS011;5969;50.780;7.726;2023-08-01T14:14:08;3.17;;;1.67;;
11823;SDS011;5969;50.780;7.726;2023-08-01T14:16:35;2.78;;;1.52;;
11823;SDS011;5969;50.780;7.726;2023-08-01T14:19:02;3.05;;;1.50;;
11823;SDS011;5969;50.780;7.726;2023-08-01T14:21:29;3.10;;;1.60;;
11823;SDS011;5969;50.780;7.726;2023-08-01T14:23:56;2.63;;;1.60;;
11823;SDS011;5969;50.780;7.726;2023-08-01T14:26:24;3.15;;;1.73;;
11823;SDS011;5969;50.780;7.726;2023-08-01T14:28:51;2.60;;;1.63;;
11823;SDS011;5969;50.780;7.726;2023-08-01T14:31:18;1.95;;;1.45;;
11823;SDS011;5969;50.780;7.726;2023-08-01T14:33:48;2.08;;;1.25;;
11823;SDS011;5969;50.780;7.726;2023-08-01T14:36:18;2.03;;;1.40;;
11823;SDS011;5969;50.780;7.726;2023-08-01T14:38:45;2.40;;;1.33;;
11823;SDS011;5969;50.780;7.726;2023-08-01T14:41:19;2.78;;;1.30;;
11823;SDS011;5969;50.780;7.726;2023-08-01T14:43:53;2.50;;;1.42;;
11823;SDS011;5969;50.780;7.726;2023-08-01T14:46:24;4.22;;;1.50;;
11823;SDS011;5969;50.780;7.726;2023-08-01T14:48:52;2.55;;;1.63;;
11823;SDS011;5969;50.780;7.726;2023-08-01T14:51:25;1.73;;;1.45;;
11823;SDS011;5969;50.780;7.726;2023-08-01T14:53:53;2.10;;;1.17;;
11823;SDS011;5969;50.780;7.726;2023-08-01T14:56:20;1.50;;;1.13;;
11823;SDS011;5969;50.780;7.726;2023-08-01T14:58:48;2.72;;;1.40;;
11823;SDS011;5969;50.780;7.726;2023-08-01T15:01:20;1.55;;;1.17;;
11823;SDS011;5969;50.780;7.726;2023-08-01T15:03:47;1.88;;;1.25;;
11823;SDS011;5969;50.780;7.726;2023-08-01T15:06:14;2.80;;;1.60;;